Hauptseite
METAR-TAF:

METAR-TAF

Flughäfen :

Gloucester, England

Breite: 51-54N, Länge: 002-10W, Höhe: 29 m

Beobachtung

Neuester Wetterbericht von vor 38 Minuten, um 12:50 UTC
Wind 6 kt aus West/Südwest, variierte zwischen Süd/Südwest und West/Nordwest
Temperatur 21°C
Luftfeuchtigkeit 53%
Luftdruck 1016 hPa
Sichtweite 10 km oder mehr
Leicht bewölkt in der Höhe von 4200 ft

METAR: EGBJ 171250Z 24006KT 210V290 9999 FEW042 21/11 Q1016

Zeit: 14:28 (13:28 UTC)

Prognose

Neuester Wetterbericht von vor 2 Stunden und 33 Minuten, um 10:55 UTC
Gültige Prognose vom 17 um 12 UTC bis 17 um 19 UTC
Wind 9 kt aus West/Südwest
Sichtweite 10 km oder mehr
Aufgelockert bewölkt in der Höhe von 4000 ft

TAF: EGBJ 171055Z 1712/1719 24009KT 9999 SCT040

Wetterbeobachtungen und Prognosen von mehr als 4000 Flughäfen (METAR und TAF Bericht).

Die verfügbaren Stationen werden durch gelbe und rote Markierungen auf der Karte dargestellt.

Führen Sie die Maus auf sie, um den Namen der Station zu sehen.

Darauf klicken, um die Beobachtung von Wetterbeobachtungen und Prognosen zu sehen.

Um die Karte zu ändern : klicken Sie auf den grünen Tasten mit einem schwarzen Kreuz Zum Vergrößern, auf den grünen Button mit einem Gedankenstrich zu verkleinern, oder auf die grünen Pfeile für benachbarte Karten.


METAR-TAF: